sensor_id;sensor_type;location;lat;lon;timestamp;temperature;humidity
18930;DHT22;43305;52.186;5.598;2023-12-14T00:00:17;6.00;99.90
18930;DHT22;43305;52.186;5.598;2023-12-14T00:02:44;6.00;99.90
18930;DHT22;43305;52.186;5.598;2023-12-14T00:05:11;5.90;99.90
18930;DHT22;43305;52.186;5.598;2023-12-14T00:07:39;5.90;99.90
18930;DHT22;43305;52.186;5.598;2023-12-14T00:10:07;5.90;99.90
18930;DHT22;43305;52.186;5.598;2023-12-14T00:12:34;5.90;99.90
18930;DHT22;43305;52.186;5.598;2023-12-14T00:15:01;5.90;99.90
18930;DHT22;43305;52.186;5.598;2023-12-14T00:17:28;6.00;99.90
18930;DHT22;43305;52.186;5.598;2023-12-14T00:19:55;6.00;99.90
18930;DHT22;43305;52.186;5.598;2023-12-14T00:22:22;5.90;99.90
18930;DHT22;43305;52.186;5.598;2023-12-14T00:24:53;5.90;99.90
18930;DHT22;43305;52.186;5.598;2023-12-14T00:27:20;5.90;99.90
18930;DHT22;43305;52.186;5.598;2023-12-14T00:29:49;5.90;99.90
18930;DHT22;43305;52.186;5.598;2023-12-14T00:32:15;5.80;99.90
18930;DHT22;43305;52.186;5.598;2023-12-14T00:34:42;5.80;99.90
18930;DHT22;43305;52.186;5.598;2023-12-14T00:37:09;5.90;99.90
18930;DHT22;43305;52.186;5.598;2023-12-14T00:39:36;5.80;99.90
18930;DHT22;43305;52.186;5.598;2023-12-14T00:42:03;5.90;99.90
18930;DHT22;43305;52.186;5.598;2023-12-14T00:44:30;5.80;99.90
18930;DHT22;43305;52.186;5.598;2023-12-14T00:46:57;5.80;99.90
18930;DHT22;43305;52.186;5.598;2023-12-14T00:49:25;5.90;99.90
18930;DHT22;43305;52.186;5.598;2023-12-14T00:51:54;5.80;99.90
18930;DHT22;43305;52.186;5.598;2023-12-14T00:54:23;5.90;99.90
18930;DHT22;43305;52.186;5.598;2023-12-14T00:56:52;5.80;99.90
18930;DHT22;43305;52.186;5.598;2023-12-14T00:59:21;5.80;99.90
18930;DHT22;43305;52.186;5.598;2023-12-14T01:01:48;5.80;99.90
18930;DHT22;43305;52.186;5.598;2023-12-14T01:04:14;5.80;99.90
18930;DHT22;43305;52.186;5.598;2023-12-14T01:06:41;5.80;99.90
18930;DHT22;43305;52.186;5.598;2023-12-14T01:09:08;5.80;99.90
18930;DHT22;43305;52.186;5.598;2023-12-14T01:11:35;5.80;99.90
18930;DHT22;43305;52.186;5.598;2023-12-14T01:14:01;5.80;99.90
18930;DHT22;43305;52.186;5.598;2023-12-14T01:16:31;5.80;99.90
18930;DHT22;43305;52.186;5.598;2023-12-14T01:18:57;5.70;99.90
18930;DHT22;43305;52.186;5.598;2023-12-14T01:21:24;5.70;99.90
18930;DHT22;43305;52.186;5.598;2023-12-14T01:23:54;5.70;99.90
18930;DHT22;43305;52.186;5.598;2023-12-14T01:26:21;5.80;99.90
18930;DHT22;43305;52.186;5.598;2023-12-14T01:28:48;5.70;99.90
18930;DHT22;43305;52.186;5.598;2023-12-14T01:31:15;5.80;99.90
18930;DHT22;43305;52.186;5.598;2023-12-14T01:33:43;5.70;99.90
18930;DHT22;43305;52.186;5.598;2023-12-14T01:36:11;5.80;99.90
18930;DHT22;43305;52.186;5.598;2023-12-14T01:38:38;5.80;99.90
18930;DHT22;43305;52.186;5.598;2023-12-14T01:41:05;5.80;99.90
18930;DHT22;43305;52.186;5.598;2023-12-14T01:43:31;5.70;99.90
18930;DHT22;43305;52.186;5.598;2023-12-14T01:45:58;5.80;99.90
18930;DHT22;43305;52.186;5.598;2023-12-14T01:48:25;5.80;99.90
18930;DHT22;43305;52.186;5.598;2023-12-14T01:50:53;5.80;99.90
18930;DHT22;43305;52.186;5.598;2023-12-14T01:53:23;5.80;99.90
18930;DHT22;43305;52.186;5.598;2023-12-14T01:55:53;5.80;99.90
18930;DHT22;43305;52.186;5.598;2023-12-14T01:58:20;5.70;99.90
18930;DHT22;43305;52.186;5.598;2023-12-14T02:00:53;5.80;99.90
18930;DHT22;43305;52.186;5.598;2023-12-14T02:03:23;5.70;99.90
18930;DHT22;43305;52.186;5.598;2023-12-14T02:05:50;5.80;99.90
18930;DHT22;43305;52.186;5.598;2023-12-14T02:08:19;5.80;99.90
18930;DHT22;43305;52.186;5.598;2023-12-14T02:10:47;5.70;99.90
18930;DHT22;43305;52.186;5.598;2023-12-14T02:13:14;5.70;99.90
18930;DHT22;43305;52.186;5.598;2023-12-14T02:15:41;5.80;99.90
18930;DHT22;43305;52.186;5.598;2023-12-14T02:18:08;5.80;99.90
18930;DHT22;43305;52.186;5.598;2023-12-14T02:20:35;5.70;99.90
18930;DHT22;43305;52.186;5.598;2023-12-14T02:23:03;5.70;99.90
18930;DHT22;43305;52.186;5.598;2023-12-14T02:25:30;5.70;99.90
18930;DHT22;43305;52.186;5.598;2023-12-14T02:27:57;5.70;99.90
18930;DHT22;43305;52.186;5.598;2023-12-14T02:30:23;5.70;99.90
18930;DHT22;43305;52.186;5.598;2023-12-14T02:32:51;5.70;99.90
18930;DHT22;43305;52.186;5.598;2023-12-14T02:35:18;5.70;99.90
18930;DHT22;43305;52.186;5.598;2023-12-14T02:37:45;5.80;99.90
18930;DHT22;43305;52.186;5.598;2023-12-14T02:40:13;5.80;99.90
18930;DHT22;43305;52.186;5.598;2023-12-14T02:42:40;5.80;99.90
18930;DHT22;43305;52.186;5.598;2023-12-14T02:45:08;5.70;99.90
18930;DHT22;43305;52.186;5.598;2023-12-14T02:47:35;5.70;99.90
18930;DHT22;43305;52.186;5.598;2023-12-14T02:50:02;5.70;99.90
18930;DHT22;43305;52.186;5.598;2023-12-14T02:52:29;5.70;99.90
18930;DHT22;43305;52.186;5.598;2023-12-14T02:54:56;5.70;99.90
18930;DHT22;43305;52.186;5.598;2023-12-14T02:57:24;5.70;99.90
18930;DHT22;43305;52.186;5.598;2023-12-14T02:59:54;5.70;99.90
18930;DHT22;43305;52.186;5.598;2023-12-14T03:02:22;5.70;99.90
18930;DHT22;43305;52.186;5.598;2023-12-14T03:04:49;5.70;99.90
18930;DHT22;43305;52.186;5.598;2023-12-14T03:07:18;5.70;99.90
18930;DHT22;43305;52.186;5.598;2023-12-14T03:09:45;5.70;99.90
18930;DHT22;43305;52.186;5.598;2023-12-14T03:12:12;5.70;99.90
18930;DHT22;43305;52.186;5.598;2023-12-14T03:14:40;5.70;99.90
18930;DHT22;43305;52.186;5.598;2023-12-14T03:17:07;5.70;99.90
18930;DHT22;43305;52.186;5.598;2023-12-14T03:19:38;5.70;99.90
18930;DHT22;43305;52.186;5.598;2023-12-14T03:22:05;5.70;99.90
18930;DHT22;43305;52.186;5.598;2023-12-14T03:24:32;5.70;99.90
18930;DHT22;43305;52.186;5.598;2023-12-14T03:26:59;5.80;99.90
18930;DHT22;43305;52.186;5.598;2023-12-14T03:29:26;5.70;99.90
18930;DHT22;43305;52.186;5.598;2023-12-14T03:31:55;5.70;99.90
18930;DHT22;43305;52.186;5.598;2023-12-14T03:34:21;5.70;99.90
18930;DHT22;43305;52.186;5.598;2023-12-14T03:36:48;5.70;99.90
18930;DHT22;43305;52.186;5.598;2023-12-14T03:39:15;5.70;99.90
18930;DHT22;43305;52.186;5.598;2023-12-14T03:41:42;5.70;99.90
18930;DHT22;43305;52.186;5.598;2023-12-14T03:44:09;5.70;99.90
18930;DHT22;43305;52.186;5.598;2023-12-14T03:46:36;5.70;99.90
18930;DHT22;43305;52.186;5.598;2023-12-14T03:49:04;5.70;99.90
18930;DHT22;43305;52.186;5.598;2023-12-14T03:51:31;5.70;99.90
18930;DHT22;43305;52.186;5.598;2023-12-14T03:53:58;5.70;99.90
18930;DHT22;43305;52.186;5.598;2023-12-14T03:56:25;5.70;99.90
18930;DHT22;43305;52.186;5.598;2023-12-14T03:58:52;5.70;99.90
18930;DHT22;43305;52.186;5.598;2023-12-14T04:01:19;5.70;99.90
18930;DHT22;43305;52.186;5.598;2023-12-14T04:03:48;5.70;99.90
18930;DHT22;43305;52.186;5.598;2023-12-14T04:06:16;5.70;99.90
18930;DHT22;43305;52.186;5.598;2023-12-14T04:08:43;5.70;99.90
18930;DHT22;43305;52.186;5.598;2023-12-14T04:11:10;5.70;99.90
18930;DHT22;43305;52.186;5.598;2023-12-14T04:13:38;5.70;99.90
18930;DHT22;43305;52.186;5.598;2023-12-14T04:16:06;5.60;99.90
18930;DHT22;43305;52.186;5.598;2023-12-14T04:18:33;5.60;99.90
18930;DHT22;43305;52.186;5.598;2023-12-14T04:21:00;5.60;99.90
18930;DHT22;43305;52.186;5.598;2023-12-14T04:23:28;5.60;99.90
18930;DHT22;43305;52.186;5.598;2023-12-14T04:25:55;5.70;99.90
18930;DHT22;43305;52.186;5.598;2023-12-14T04:28:21;5.60;99.90
18930;DHT22;43305;52.186;5.598;2023-12-14T04:30:48;5.60;99.90
18930;DHT22;43305;52.186;5.598;2023-12-14T04:33:15;5.50;99.90
18930;DHT22;43305;52.186;5.598;2023-12-14T04:35:42;5.60;99.90
18930;DHT22;43305;52.186;5.598;2023-12-14T04:38:09;5.60;99.90
18930;DHT22;43305;52.186;5.598;2023-12-14T04:40:37;5.50;99.90
18930;DHT22;43305;52.186;5.598;2023-12-14T04:43:04;5.50;99.90
18930;DHT22;43305;52.186;5.598;2023-12-14T04:45:30;5.50;99.90
18930;DHT22;43305;52.186;5.598;2023-12-14T04:47:57;5.50;99.90
18930;DHT22;43305;52.186;5.598;2023-12-14T04:50:24;5.60;99.90
18930;DHT22;43305;52.186;5.598;2023-12-14T04:52:51;5.50;99.90
18930;DHT22;43305;52.186;5.598;2023-12-14T04:55:18;5.50;99.90
18930;DHT22;43305;52.186;5.598;2023-12-14T04:57:46;5.50;99.90
18930;DHT22;43305;52.186;5.598;2023-12-14T05:00:15;5.50;99.90
18930;DHT22;43305;52.186;5.598;2023-12-14T05:02:46;5.50;99.90
18930;DHT22;43305;52.186;5.598;2023-12-14T05:05:13;5.50;99.90
18930;DHT22;43305;52.186;5.598;2023-12-14T05:07:40;5.50;99.90
18930;DHT22;43305;52.186;5.598;2023-12-14T05:10:07;5.50;99.90
18930;DHT22;43305;52.186;5.598;2023-12-14T05:12:35;5.50;99.90
18930;DHT22;43305;52.186;5.598;2023-12-14T05:15:05;5.50;99.90
18930;DHT22;43305;52.186;5.598;2023-12-14T05:17:32;5.50;99.90
18930;DHT22;43305;52.186;5.598;2023-12-14T05:20:00;5.50;99.90
18930;DHT22;43305;52.186;5.598;2023-12-14T05:22:27;5.50;99.90
18930;DHT22;43305;52.186;5.598;2023-12-14T05:24:54;5.50;99.90
18930;DHT22;43305;52.186;5.598;2023-12-14T05:27:21;5.50;99.90
18930;DHT22;43305;52.186;5.598;2023-12-14T05:29:48;5.50;99.90
18930;DHT22;43305;52.186;5.598;2023-12-14T05:32:16;5.50;99.90
18930;DHT22;43305;52.186;5.598;2023-12-14T05:34:43;5.50;99.90
18930;DHT22;43305;52.186;5.598;2023-12-14T05:37:10;5.50;99.90
18930;DHT22;43305;52.186;5.598;2023-12-14T05:39:37;5.40;99.90
18930;DHT22;43305;52.186;5.598;2023-12-14T05:42:04;5.40;99.90
18930;DHT22;43305;52.186;5.598;2023-12-14T05:44:31;5.40;99.90
18930;DHT22;43305;52.186;5.598;2023-12-14T05:46:57;5.40;99.90
18930;DHT22;43305;52.186;5.598;2023-12-14T05:49:25;5.40;99.90
18930;DHT22;43305;52.186;5.598;2023-12-14T05:51:53;5.30;99.90
18930;DHT22;43305;52.186;5.598;2023-12-14T05:54:20;5.30;99.90
18930;DHT22;43305;52.186;5.598;2023-12-14T05:56:47;5.30;99.90
18930;DHT22;43305;52.186;5.598;2023-12-14T05:59:14;5.30;99.90
18930;DHT22;43305;52.186;5.598;2023-12-14T06:01:41;5.40;99.90
18930;DHT22;43305;52.186;5.598;2023-12-14T06:04:08;5.30;99.90
18930;DHT22;43305;52.186;5.598;2023-12-14T06:06:37;5.30;99.90
18930;DHT22;43305;52.186;5.598;2023-12-14T06:09:04;5.30;99.90
18930;DHT22;43305;52.186;5.598;2023-12-14T06:11:32;5.30;99.90
18930;DHT22;43305;52.186;5.598;2023-12-14T06:13:59;5.20;99.90
18930;DHT22;43305;52.186;5.598;2023-12-14T06:16:26;5.20;99.90
18930;DHT22;43305;52.186;5.598;2023-12-14T06:18:53;5.20;99.90
18930;DHT22;43305;52.186;5.598;2023-12-14T06:21:20;5.20;99.90
18930;DHT22;43305;52.186;5.598;2023-12-14T06:23:53;5.10;99.90
18930;DHT22;43305;52.186;5.598;2023-12-14T06:26:20;5.10;99.90
18930;DHT22;43305;52.186;5.598;2023-12-14T06:28:49;5.10;99.90
18930;DHT22;43305;52.186;5.598;2023-12-14T06:31:17;5.10;99.90
18930;DHT22;43305;52.186;5.598;2023-12-14T06:33:45;5.20;99.90
18930;DHT22;43305;52.186;5.598;2023-12-14T06:36:12;5.20;99.90
18930;DHT22;43305;52.186;5.598;2023-12-14T06:38:39;5.20;99.90
18930;DHT22;43305;52.186;5.598;2023-12-14T06:41:07;5.20;99.90
18930;DHT22;43305;52.186;5.598;2023-12-14T06:43:34;5.20;99.90
18930;DHT22;43305;52.186;5.598;2023-12-14T06:46:01;5.20;99.90
18930;DHT22;43305;52.186;5.598;2023-12-14T06:48:28;5.20;99.90
18930;DHT22;43305;52.186;5.598;2023-12-14T06:50:55;5.10;99.90
18930;DHT22;43305;52.186;5.598;2023-12-14T06:53:22;5.10;99.90
18930;DHT22;43305;52.186;5.598;2023-12-14T06:55:49;5.10;99.90
18930;DHT22;43305;52.186;5.598;2023-12-14T06:58:17;5.10;99.90
18930;DHT22;43305;52.186;5.598;2023-12-14T07:00:44;5.10;99.90
18930;DHT22;43305;52.186;5.598;2023-12-14T07:03:10;5.10;99.90
18930;DHT22;43305;52.186;5.598;2023-12-14T07:05:37;5.10;99.90
18930;DHT22;43305;52.186;5.598;2023-12-14T07:08:05;5.10;99.90
18930;DHT22;43305;52.186;5.598;2023-12-14T07:10:32;5.10;99.90
18930;DHT22;43305;52.186;5.598;2023-12-14T07:12:58;5.20;99.90
18930;DHT22;43305;52.186;5.598;2023-12-14T07:15:27;5.10;99.90
18930;DHT22;43305;52.186;5.598;2023-12-14T07:17:53;5.10;99.90
18930;DHT22;43305;52.186;5.598;2023-12-14T07:20:24;5.10;99.90
18930;DHT22;43305;52.186;5.598;2023-12-14T07:22:52;5.10;99.90
18930;DHT22;43305;52.186;5.598;2023-12-14T07:25:26;5.10;99.90
18930;DHT22;43305;52.186;5.598;2023-12-14T07:27:53;5.10;99.90
18930;DHT22;43305;52.186;5.598;2023-12-14T07:30:20;5.10;99.90
18930;DHT22;43305;52.186;5.598;2023-12-14T07:32:52;5.10;99.90
18930;DHT22;43305;52.186;5.598;2023-12-14T07:35:19;5.10;99.90
18930;DHT22;43305;52.186;5.598;2023-12-14T07:37:47;5.10;99.90
18930;DHT22;43305;52.186;5.598;2023-12-14T07:40:13;5.10;99.90
18930;DHT22;43305;52.186;5.598;2023-12-14T07:42:40;5.00;99.90
18930;DHT22;43305;52.186;5.598;2023-12-14T07:45:08;5.10;99.90
18930;DHT22;43305;52.186;5.598;2023-12-14T07:47:36;5.10;99.90
18930;DHT22;43305;52.186;5.598;2023-12-14T07:50:05;5.10;99.90
18930;DHT22;43305;52.186;5.598;2023-12-14T07:52:32;5.10;99.90
18930;DHT22;43305;52.186;5.598;2023-12-14T07:55:00;5.10;99.90
18930;DHT22;43305;52.186;5.598;2023-12-14T07:57:27;5.10;99.90
18930;DHT22;43305;52.186;5.598;2023-12-14T07:59:53;5.10;99.90
18930;DHT22;43305;52.186;5.598;2023-12-14T08:02:24;5.10;99.90
18930;DHT22;43305;52.186;5.598;2023-12-14T08:04:54;5.10;99.90
18930;DHT22;43305;52.186;5.598;2023-12-14T08:07:23;5.10;99.90
18930;DHT22;43305;52.186;5.598;2023-12-14T08:09:54;5.10;99.90
18930;DHT22;43305;52.186;5.598;2023-12-14T08:12:22;5.10;99.90
18930;DHT22;43305;52.186;5.598;2023-12-14T08:14:49;5.10;99.90
18930;DHT22;43305;52.186;5.598;2023-12-14T08:17:19;5.10;99.90
18930;DHT22;43305;52.186;5.598;2023-12-14T08:19:48;5.10;99.90
18930;DHT22;43305;52.186;5.598;2023-12-14T08:22:14;5.10;99.90
18930;DHT22;43305;52.186;5.598;2023-12-14T08:24:43;5.10;99.90
18930;DHT22;43305;52.186;5.598;2023-12-14T08:27:10;5.10;99.90
18930;DHT22;43305;52.186;5.598;2023-12-14T08:29:36;5.10;99.90
18930;DHT22;43305;52.186;5.598;2023-12-14T08:32:05;5.10;99.90
18930;DHT22;43305;52.186;5.598;2023-12-14T08:34:32;5.10;99.90
18930;DHT22;43305;52.186;5.598;2023-12-14T08:37:00;5.10;99.90
18930;DHT22;43305;52.186;5.598;2023-12-14T08:39:27;5.10;99.90
18930;DHT22;43305;52.186;5.598;2023-12-14T08:41:55;5.10;99.90
18930;DHT22;43305;52.186;5.598;2023-12-14T08:44:22;5.20;99.90
18930;DHT22;43305;52.186;5.598;2023-12-14T08:46:49;5.20;99.90
18930;DHT22;43305;52.186;5.598;2023-12-14T08:49:15;5.20;99.90
18930;DHT22;43305;52.186;5.598;2023-12-14T08:51:42;5.20;99.90
18930;DHT22;43305;52.186;5.598;2023-12-14T08:54:09;5.20;99.90
18930;DHT22;43305;52.186;5.598;2023-12-14T08:56:36;5.20;99.90
18930;DHT22;43305;52.186;5.598;2023-12-14T08:59:04;5.30;99.90
18930;DHT22;43305;52.186;5.598;2023-12-14T09:01:31;5.30;99.90
18930;DHT22;43305;52.186;5.598;2023-12-14T09:03:57;5.30;99.90
18930;DHT22;43305;52.186;5.598;2023-12-14T09:06:24;5.20;99.90
18930;DHT22;43305;52.186;5.598;2023-12-14T09:08:52;5.30;99.90
18930;DHT22;43305;52.186;5.598;2023-12-14T09:11:18;5.30;99.90
18930;DHT22;43305;52.186;5.598;2023-12-14T09:13:45;5.20;99.90
18930;DHT22;43305;52.186;5.598;2023-12-14T09:16:13;5.20;99.90
18930;DHT22;43305;52.186;5.598;2023-12-14T09:18:40;5.20;99.90
18930;DHT22;43305;52.186;5.598;2023-12-14T09:21:07;5.20;99.90
18930;DHT22;43305;52.186;5.598;2023-12-14T09:23:34;5.20;99.90
18930;DHT22;43305;52.186;5.598;2023-12-14T09:26:01;5.20;99.90
18930;DHT22;43305;52.186;5.598;2023-12-14T09:28:28;5.20;99.90
18930;DHT22;43305;52.186;5.598;2023-12-14T09:30:54;5.20;99.90
18930;DHT22;43305;52.186;5.598;2023-12-14T09:33:23;5.20;99.90
18930;DHT22;43305;52.186;5.598;2023-12-14T09:35:50;5.20;99.90
18930;DHT22;43305;52.186;5.598;2023-12-14T09:38:19;5.20;99.90
18930;DHT22;43305;52.186;5.598;2023-12-14T09:40:46;5.20;99.90
18930;DHT22;43305;52.186;5.598;2023-12-14T09:43:12;5.20;99.90
18930;DHT22;43305;52.186;5.598;2023-12-14T09:45:41;5.20;99.90
18930;DHT22;43305;52.186;5.598;2023-12-14T09:48:10;5.30;99.90
18930;DHT22;43305;52.186;5.598;2023-12-14T09:50:40;5.30;99.90
18930;DHT22;43305;52.186;5.598;2023-12-14T09:53:07;5.30;99.90
18930;DHT22;43305;52.186;5.598;2023-12-14T09:55:34;5.30;99.90
18930;DHT22;43305;52.186;5.598;2023-12-14T09:58:00;5.30;99.90
18930;DHT22;43305;52.186;5.598;2023-12-14T10:00:35;5.30;99.90
18930;DHT22;43305;52.186;5.598;2023-12-14T10:03:22;5.30;99.90
18930;DHT22;43305;52.186;5.598;2023-12-14T10:05:54;5.30;99.90
18930;DHT22;43305;52.186;5.598;2023-12-14T10:08:25;5.30;99.90
18930;DHT22;43305;52.186;5.598;2023-12-14T10:10:53;5.30;99.90
18930;DHT22;43305;52.186;5.598;2023-12-14T10:13:22;5.30;99.90
18930;DHT22;43305;52.186;5.598;2023-12-14T10:16:01;5.30;99.90
18930;DHT22;43305;52.186;5.598;2023-12-14T10:18:32;5.30;99.90
18930;DHT22;43305;52.186;5.598;2023-12-14T10:21:01;5.20;99.90
18930;DHT22;43305;52.186;5.598;2023-12-14T10:23:28;5.30;99.90
18930;DHT22;43305;52.186;5.598;2023-12-14T10:25:55;5.40;99.90
18930;DHT22;43305;52.186;5.598;2023-12-14T10:28:24;5.40;99.90
18930;DHT22;43305;52.186;5.598;2023-12-14T10:30:52;5.40;99.90
18930;DHT22;43305;52.186;5.598;2023-12-14T10:33:19;5.50;99.90
18930;DHT22;43305;52.186;5.598;2023-12-14T10:35:49;5.50;99.90
18930;DHT22;43305;52.186;5.598;2023-12-14T10:38:18;5.50;99.90
18930;DHT22;43305;52.186;5.598;2023-12-14T10:40:46;5.50;99.90
18930;DHT22;43305;52.186;5.598;2023-12-14T10:43:13;5.60;99.90
18930;DHT22;43305;52.186;5.598;2023-12-14T10:45:43;5.70;99.90
18930;DHT22;43305;52.186;5.598;2023-12-14T10:48:11;5.70;99.90
18930;DHT22;43305;52.186;5.598;2023-12-14T10:50:39;5.70;99.90
18930;DHT22;43305;52.186;5.598;2023-12-14T10:53:09;5.70;99.90
18930;DHT22;43305;52.186;5.598;2023-12-14T10:55:40;5.80;99.90
18930;DHT22;43305;52.186;5.598;2023-12-14T10:58:08;5.80;99.90
18930;DHT22;43305;52.186;5.598;2023-12-14T11:00:35;5.90;99.90
18930;DHT22;43305;52.186;5.598;2023-12-14T11:03:04;5.90;99.90
18930;DHT22;43305;52.186;5.598;2023-12-14T11:05:32;6.00;99.90
18930;DHT22;43305;52.186;5.598;2023-12-14T11:08:01;6.10;99.90
18930;DHT22;43305;52.186;5.598;2023-12-14T11:10:38;6.20;99.90
18930;DHT22;43305;52.186;5.598;2023-12-14T11:13:07;6.30;99.90
18930;DHT22;43305;52.186;5.598;2023-12-14T11:15:36;6.20;99.90
18930;DHT22;43305;52.186;5.598;2023-12-14T11:18:22;6.30;99.90
18930;DHT22;43305;52.186;5.598;2023-12-14T11:20:54;6.40;99.90
18930;DHT22;43305;52.186;5.598;2023-12-14T11:23:32;6.50;99.90
18930;DHT22;43305;52.186;5.598;2023-12-14T11:26:03;6.40;99.90
18930;DHT22;43305;52.186;5.598;2023-12-14T11:28:31;6.40;99.90
18930;DHT22;43305;52.186;5.598;2023-12-14T11:30:58;6.40;99.90
18930;DHT22;43305;52.186;5.598;2023-12-14T11:33:24;6.30;99.90
18930;DHT22;43305;52.186;5.598;2023-12-14T11:35:52;6.30;99.90
18930;DHT22;43305;52.186;5.598;2023-12-14T11:38:19;6.40;99.90
18930;DHT22;43305;52.186;5.598;2023-12-14T11:40:49;6.50;99.90
18930;DHT22;43305;52.186;5.598;2023-12-14T11:43:20;6.50;99.90
18930;DHT22;43305;52.186;5.598;2023-12-14T11:45:48;6.60;99.90
18930;DHT22;43305;52.186;5.598;2023-12-14T11:48:15;6.70;99.90
18930;DHT22;43305;52.186;5.598;2023-12-14T11:50:43;6.70;99.90
18930;DHT22;43305;52.186;5.598;2023-12-14T11:53:10;7.00;99.90
18930;DHT22;43305;52.186;5.598;2023-12-14T11:55:39;7.30;99.90
18930;DHT22;43305;52.186;5.598;2023-12-14T11:58:06;7.50;99.90
18930;DHT22;43305;52.186;5.598;2023-12-14T12:00:35;7.50;99.90
18930;DHT22;43305;52.186;5.598;2023-12-14T12:03:09;7.60;99.90
18930;DHT22;43305;52.186;5.598;2023-12-14T12:05:37;7.70;99.90
18930;DHT22;43305;52.186;5.598;2023-12-14T12:08:04;7.90;99.90
18930;DHT22;43305;52.186;5.598;2023-12-14T12:10:31;8.10;99.90
18930;DHT22;43305;52.186;5.598;2023-12-14T12:13:02;8.10;99.90
18930;DHT22;43305;52.186;5.598;2023-12-14T12:15:31;8.20;99.90
18930;DHT22;43305;52.186;5.598;2023-12-14T12:18:00;8.10;99.90
18930;DHT22;43305;52.186;5.598;2023-12-14T12:20:26;7.90;99.90
18930;DHT22;43305;52.186;5.598;2023-12-14T12:22:53;7.70;99.90
18930;DHT22;43305;52.186;5.598;2023-12-14T12:25:21;7.70;99.90
18930;DHT22;43305;52.186;5.598;2023-12-14T12:27:49;7.60;99.90
18930;DHT22;43305;52.186;5.598;2023-12-14T12:30:15;7.50;99.90
18930;DHT22;43305;52.186;5.598;2023-12-14T12:32:42;7.40;99.90
18930;DHT22;43305;52.186;5.598;2023-12-14T12:35:10;7.20;99.90
18930;DHT22;43305;52.186;5.598;2023-12-14T12:37:37;7.20;99.90
18930;DHT22;43305;52.186;5.598;2023-12-14T12:40:06;7.10;99.90
18930;DHT22;43305;52.186;5.598;2023-12-14T12:42:33;7.00;99.90
18930;DHT22;43305;52.186;5.598;2023-12-14T12:45:00;7.00;99.90
18930;DHT22;43305;52.186;5.598;2023-12-14T12:47:27;6.90;99.90
18930;DHT22;43305;52.186;5.598;2023-12-14T12:49:54;6.90;99.90
18930;DHT22;43305;52.186;5.598;2023-12-14T12:52:25;6.90;99.90
18930;DHT22;43305;52.186;5.598;2023-12-14T12:54:52;7.00;99.90
18930;DHT22;43305;52.186;5.598;2023-12-14T12:57:18;7.00;99.90
18930;DHT22;43305;52.186;5.598;2023-12-14T12:59:46;7.10;99.90
18930;DHT22;43305;52.186;5.598;2023-12-14T13:02:12;7.10;99.90
18930;DHT22;43305;52.186;5.598;2023-12-14T13:04:39;7.10;99.90
18930;DHT22;43305;52.186;5.598;2023-12-14T13:07:06;7.10;99.90
18930;DHT22;43305;52.186;5.598;2023-12-14T13:09:34;7.10;99.90
18930;DHT22;43305;52.186;5.598;2023-12-14T13:12:00;7.00;99.90
18930;DHT22;43305;52.186;5.598;2023-12-14T13:14:28;7.00;99.90
18930;DHT22;43305;52.186;5.598;2023-12-14T13:16:54;7.00;99.90
18930;DHT22;43305;52.186;5.598;2023-12-14T13:19:23;6.90;99.90
18930;DHT22;43305;52.186;5.598;2023-12-14T13:21:54;6.90;99.90
18930;DHT22;43305;52.186;5.598;2023-12-14T13:24:22;6.90;99.90
18930;DHT22;43305;52.186;5.598;2023-12-14T13:26:51;6.90;99.90
18930;DHT22;43305;52.186;5.598;2023-12-14T13:29:18;7.00;99.90
18930;DHT22;43305;52.186;5.598;2023-12-14T13:31:47;7.00;99.90
18930;DHT22;43305;52.186;5.598;2023-12-14T13:34:14;7.00;99.90
18930;DHT22;43305;52.186;5.598;2023-12-14T13:36:41;6.90;99.90
18930;DHT22;43305;52.186;5.598;2023-12-14T13:39:07;6.80;99.90
18930;DHT22;43305;52.186;5.598;2023-12-14T13:41:35;6.80;99.90
18930;DHT22;43305;52.186;5.598;2023-12-14T13:44:03;6.80;99.90
18930;DHT22;43305;52.186;5.598;2023-12-14T13:46:30;6.70;99.90
18930;DHT22;43305;52.186;5.598;2023-12-14T13:48:57;6.70;99.90
18930;DHT22;43305;52.186;5.598;2023-12-14T13:51:23;6.80;99.90
18930;DHT22;43305;52.186;5.598;2023-12-14T13:53:50;6.80;99.90
18930;DHT22;43305;52.186;5.598;2023-12-14T13:56:17;6.90;99.90
18930;DHT22;43305;52.186;5.598;2023-12-14T13:58:44;7.00;99.90
18930;DHT22;43305;52.186;5.598;2023-12-14T14:01:12;6.90;99.90
18930;DHT22;43305;52.186;5.598;2023-12-14T14:03:41;6.90;99.90
18930;DHT22;43305;52.186;5.598;2023-12-14T14:06:08;6.90;99.90
18930;DHT22;43305;52.186;5.598;2023-12-14T14:08:35;6.90;99.90
18930;DHT22;43305;52.186;5.598;2023-12-14T14:11:02;6.90;99.90
18930;DHT22;43305;52.186;5.598;2023-12-14T14:13:29;6.90;99.90
18930;DHT22;43305;52.186;5.598;2023-12-14T14:15:57;6.80;99.90
18930;DHT22;43305;52.186;5.598;2023-12-14T14:18:25;6.80;99.90
18930;DHT22;43305;52.186;5.598;2023-12-14T14:20:52;6.80;99.90
18930;DHT22;43305;52.186;5.598;2023-12-14T14:23:19;6.70;99.90
18930;DHT22;43305;52.186;5.598;2023-12-14T14:25:46;6.70;99.90
18930;DHT22;43305;52.186;5.598;2023-12-14T14:28:13;6.70;99.90
18930;DHT22;43305;52.186;5.598;2023-12-14T14:30:40;6.60;99.90
18930;DHT22;43305;52.186;5.598;2023-12-14T14:33:07;6.60;99.90
18930;DHT22;43305;52.186;5.598;2023-12-14T14:35:35;6.60;99.90
18930;DHT22;43305;52.186;5.598;2023-12-14T14:38:02;6.50;99.90
18930;DHT22;43305;52.186;5.598;2023-12-14T14:40:29;6.50;99.90
18930;DHT22;43305;52.186;5.598;2023-12-14T14:42:56;6.50;99.90
18930;DHT22;43305;52.186;5.598;2023-12-14T14:45:24;6.40;99.90
18930;DHT22;43305;52.186;5.598;2023-12-14T14:47:51;6.40;99.90
18930;DHT22;43305;52.186;5.598;2023-12-14T14:50:18;6.30;99.90
18930;DHT22;43305;52.186;5.598;2023-12-14T14:52:46;6.30;99.90
18930;DHT22;43305;52.186;5.598;2023-12-14T14:55:13;6.30;99.90
18930;DHT22;43305;52.186;5.598;2023-12-14T14:57:40;6.30;99.90
18930;DHT22;43305;52.186;5.598;2023-12-14T15:00:08;6.30;99.90
18930;DHT22;43305;52.186;5.598;2023-12-14T15:02:35;6.30;99.90
18930;DHT22;43305;52.186;5.598;2023-12-14T15:05:06;6.30;99.90
18930;DHT22;43305;52.186;5.598;2023-12-14T15:07:33;6.30;99.90
18930;DHT22;43305;52.186;5.598;2023-12-14T15:10:01;6.30;99.90
18930;DHT22;43305;52.186;5.598;2023-12-14T15:12:28;6.30;99.90
18930;DHT22;43305;52.186;5.598;2023-12-14T15:14:57;6.30;99.90
18930;DHT22;43305;52.186;5.598;2023-12-14T15:17:24;6.30;99.90
18930;DHT22;43305;52.186;5.598;2023-12-14T15:19:51;6.30;99.90
18930;DHT22;43305;52.186;5.598;2023-12-14T15:22:18;6.30;99.90
18930;DHT22;43305;52.186;5.598;2023-12-14T15:24:45;6.20;99.90
18930;DHT22;43305;52.186;5.598;2023-12-14T15:27:14;6.20;99.90
18930;DHT22;43305;52.186;5.598;2023-12-14T15:29:41;6.30;99.90
18930;DHT22;43305;52.186;5.598;2023-12-14T15:32:07;6.20;99.90
18930;DHT22;43305;52.186;5.598;2023-12-14T15:34:34;6.20;99.90
18930;DHT22;43305;52.186;5.598;2023-12-14T15:37:01;6.20;99.90
18930;DHT22;43305;52.186;5.598;2023-12-14T15:39:28;6.20;99.90
18930;DHT22;43305;52.186;5.598;2023-12-14T15:41:55;6.30;99.90
18930;DHT22;43305;52.186;5.598;2023-12-14T15:44:23;6.20;99.90
18930;DHT22;43305;52.186;5.598;2023-12-14T15:46:50;6.20;99.90